Latest Weather Observations for Mareeba

IDQ60801

Issued at 2:05 pm EST Thursday 17 April 2014 (issued every 30 minutes, with the page automatically refreshed every 10 minutes)

About weather observations | Map of weather stations | Latest weather observations for QLD | Other Formats
Station Details ID: 031210 Name: MAREEBA AIRPORT Lat: -17.07 Lon: 145.43 Height: 471.93 m
Data from the previous 72 hours. | See also: Recent months at Mareeba
Date/Time
EST
Temp
°C
App
Temp
°C
Dew
Point
Rel
Hum
%
Delta-T
°C
Wind Press
QNH
hPa
Press
MSL
hPa
Rain
since 9 am
mm
Dir
 
Spd
km/h
Gust
km/h
Spd
kts
Gust
kts
17/02:00pm 28.2 27.2 16.5 49 7.4 ESE 17 32 9 17 1014.8 - 0.0
17/01:30pm 27.7 27.0 16.3 49 7.2 ESE 15 20 8 11 1015.4 - 0.0
17/01:00pm 27.8 27.1 17.3 52 6.7 ESE 17 24 9 13 1015.6 - 0.0
17/12:30pm 27.4 28.0 17.8 55 6.2 E 11 15 6 8 1016.0 - 0.0
17/12:00pm 27.5 27.3 18.5 58 5.9 SE 17 22 9 12 1016.5 1013.8 0.0
17/11:30am 27.3 27.2 17.8 56 6.1 ESE 15 20 8 11 1016.8 - 0.0
17/11:00am 26.3 27.0 18.9 63 4.8 SE 13 17 7 9 1017.2 - 0.0
17/10:30am 25.9 25.8 18.8 65 4.6 SE 17 24 9 13 1017.4 - 0.0
17/10:00am 25.6 26.0 19.0 67 4.3 SE 15 22 8 12 1017.7 - 0.0
17/09:30am 24.7 24.9 18.6 69 3.9 SSE 15 22 8 12 1017.7 - 0.0
17/09:00am 25.1 24.8 19.2 70 3.8 SE 19 24 10 13 1017.6 1014.9 0.0
17/08:30am 24.5 25.7 20.0 76 3.0 SSE 13 17 7 9 1017.3 - 0.0
17/08:00am 23.1 23.6 19.3 79 2.5 SSE 15 22 8 12 1017.1 - 0.0
17/07:30am 22.9 25.5 19.3 80 2.3 SE 4 7 2 4 1016.9 - 0.0
17/07:00am 22.5 23.9 18.7 79 2.4 ESE 9 15 5 8 1016.4 - 0.0
17/06:30am 22.3 25.0 18.7 80 2.3 ESE 2 7 1 4 1016.0 - 0.0
17/06:00am 22.3 24.1 18.7 80 2.3 ESE 7 11 4 6 1015.6 1012.9 0.0
17/05:30am 22.4 23.6 19.0 81 2.2 SE 11 15 6 8 1015.2 - 0.0
17/05:00am 22.1 22.9 19.1 83 1.9 SSE 13 19 7 10 1014.9 - 0.0
17/04:30am 22.1 22.9 19.1 83 1.9 SE 13 17 7 9 1014.8 - 0.0
17/04:00am 22.0 23.6 19.2 84 1.8 SSE 9 13 5 7 1014.7 - 0.0
17/03:30am 22.1 23.0 19.3 84 1.8 SSE 13 19 7 10 1014.5 - 0.0
17/03:00am 22.2 23.2 19.4 84 1.8 SE 13 20 7 11 1014.6 1011.9 0.0
17/02:30am 21.9 22.9 19.5 86 1.6 SSE 13 15 7 8 1014.8 - 0.0
17/02:00am 22.0 23.3 19.4 85 1.7 SSE 11 19 6 10 1014.9 - 0.0
17/01:30am 22.1 23.1 19.5 85 1.7 SSE 13 19 7 10 1015.2 - 0.0
17/01:00am 22.2 22.8 19.4 84 1.8 SE 15 19 8 10 1015.6 - 0.0
17/12:30am 22.2 23.1 19.2 83 1.9 SE 13 20 7 11 1015.9 - 0.0
17/12:00am 22.1 23.8 19.3 84 1.8 SE 9 15 5 8 1016.1 1013.4 0.0
 
Date/Time
EST
Temp
°C
App
Temp
°C
Dew
Point
Rel
Hum
%
Delta-T
°C
Wind Press
QNH
hPa
Press
MSL
hPa
Rain
since 9 am
mm
Dir
 
Spd
km/h
Gust
km/h
Spd
kts
Gust
kts
16/11:30pm 22.0 22.9 19.2 84 1.8 SSE 13 17 7 9 1016.1 - 0.0
16/11:00pm 22.2 22.2 19.0 82 2.1 SSE 17 22 9 12 1016.2 - 0.0
16/10:30pm 22.4 22.8 19.0 81 2.2 SSE 15 20 8 11 1016.3 - 0.0
16/10:00pm 22.7 23.8 18.9 79 2.5 SE 11 19 6 10 1016.1 - 0.0
16/09:30pm 22.8 24.6 18.8 78 2.6 SE 7 11 4 6 1016.0 - 0.0
16/09:00pm 22.9 23.5 18.7 77 2.7 SE 13 19 7 10 1015.9 1013.2 0.0
16/08:30pm 22.8 22.7 18.8 78 2.6 SSE 17 24 9 13 1015.7 - 0.0
16/08:00pm 22.8 22.4 18.8 78 2.6 SE 19 24 10 13 1015.4 - 0.0
16/07:30pm 22.8 22.2 18.8 78 2.6 SE 20 26 11 14 1015.0 - 0.0
16/07:00pm 23.0 22.6 19.0 78 2.6 SE 19 26 10 14 1014.8 - 0.0
16/06:30pm 23.5 22.7 18.4 73 3.3 SE 20 28 11 15 1014.4 - 0.0
16/06:00pm 24.3 23.6 18.7 71 3.6 SE 20 26 11 14 1014.2 1011.5 0.0
16/05:30pm 25.1 25.4 19.5 71 3.7 SSE 17 20 9 11 1013.8 - 0.0
16/05:00pm 25.8 26.2 19.0 66 4.4 SSE 15 20 8 11 1013.7 - 0.0
16/04:30pm 26.4 25.8 18.5 62 5.1 SSE 19 26 10 14 1013.5 - 0.0
16/04:00pm 27.6 28.5 18.3 57 6.0 SE 11 20 6 11 1013.3 - 0.0
16/03:30pm 27.6 27.8 18.6 58 5.9 SSE 15 20 8 11 1013.3 - 0.0
16/03:00pm 26.6 26.9 18.7 62 5.1 SE 15 24 8 13 1013.4 1010.7 0.0
16/02:30pm 26.3 26.6 17.9 60 5.4 ESE 13 17 7 9 1013.8 - 0.0
16/02:00pm 25.9 25.0 17.8 61 5.2 E 19 30 10 16 1014.0 - 0.0
16/01:30pm 27.3 27.1 17.5 55 6.3 SSE 15 20 8 11 1014.0 - 0.0
16/01:00pm 28.7 28.2 16.9 48 7.5 NE 15 20 8 11 1014.2 - 0.0
16/12:30pm 27.1 27.8 17.0 54 6.4 E 9 13 5 7 1014.8 - 0.0
16/12:00pm 26.4 25.6 17.2 57 5.9 SE 17 26 9 14 1015.2 1012.6 0.0
16/11:30am 26.7 26.1 17.5 57 5.9 SE 17 26 9 14 1015.9 - 0.0
16/11:00am 25.9 26.5 17.8 61 5.2 SSE 11 19 6 10 1016.3 - 0.0
16/10:30am 25.5 26.7 18.2 64 4.7 ENE 9 11 5 6 1016.5 - 0.0
16/10:00am 24.9 26.1 18.3 66 4.2 ESE 9 15 5 8 1016.6 - 0.0
16/09:30am 24.6 24.7 18.3 68 4.1 ESE 15 20 8 11 1016.6 - 0.0
16/09:00am 23.8 23.9 18.4 72 3.5 SE 15 19 8 10 1016.4 1013.7 0.2
16/08:30am 23.1 24.2 18.8 77 2.8 SE 11 15 6 8 1016.0 - 0.2
16/08:00am 22.8 24.5 19.4 81 2.2 SE 9 13 5 7 1015.8 - 0.2
16/07:30am 22.2 24.4 19.2 83 1.9 ESE 6 9 3 5 1015.7 - 0.2
16/07:00am 21.8 23.3 19.0 84 1.8 SE 9 13 5 7 1015.4 - 0.2
16/06:30am 21.7 22.3 18.7 83 1.9 SSE 13 17 7 9 1014.9 - 0.2
16/06:00am 21.9 22.6 18.9 83 1.9 SSE 13 19 7 10 1014.6 1011.9 0.2
16/05:30am 21.9 22.6 18.9 83 1.9 SSE 13 19 7 10 1014.4 - 0.2
16/05:00am 21.9 22.7 19.1 84 1.8 SSE 13 19 7 10 1014.3 - 0.2
16/04:30am 21.5 24.5 19.2 87 1.5 ESE 2 9 1 5 1014.2 - 0.2
16/04:00am 21.8 24.5 19.4 86 1.6 E 4 7 2 4 1014.1 - 0.2
16/03:30am 21.8 25.1 19.2 85 1.7 CALM 0 0 0 0 1014.4 - 0.2
16/03:00am 22.1 24.7 19.3 84 1.8 ESE 4 9 2 5 1014.5 1011.8 0.2
16/02:30am 22.0 24.1 19.4 85 1.7 E 7 11 4 6 1014.1 - 0.2
16/02:00am 21.4 25.0 19.7 90 1.1 CALM 0 0 0 0 1014.5 - 0.2
16/01:30am 21.7 25.3 19.8 89 1.2 CALM 0 0 0 0 1014.6 - 0.2
16/01:00am 21.8 25.5 19.9 89 1.2 CALM 0 0 0 0 1014.8 - 0.2
16/12:30am 22.3 25.2 19.8 86 1.6 ESE 4 7 2 4 1015.1 - 0.2
16/12:00am 22.0 25.2 19.7 87 1.5 SE 2 7 1 4 1015.6 1012.9 0.2
 
Date/Time
EST
Temp
°C
App
Temp
°C
Dew
Point
Rel
Hum
%
Delta-T
°C
Wind Press
QNH
hPa
Press
MSL
hPa
Rain
since 9 am
mm
Dir
 
Spd
km/h
Gust
km/h
Spd
kts
Gust
kts
15/11:30pm 22.5 26.5 20.6 89 1.3 CALM 0 0 0 0 1015.7 - 0.2
15/11:00pm 22.6 26.6 20.5 88 1.4 CALM 0 0 0 0 1015.8 - 0.2
15/10:30pm 22.7 26.3 20.6 88 1.4 NNW 2 7 1 4 1016.1 - 0.2
15/10:00pm 22.6 25.4 20.5 88 1.4 NNW 6 7 3 4 1016.3 - 0.2
15/09:30pm 22.9 25.6 20.2 85 1.8 WNW 6 7 3 4 1016.1 - 0.2
15/09:00pm 23.2 26.2 20.0 82 2.1 WNW 4 9 2 5 1016.1 1013.4 0.2
15/08:30pm 23.1 25.4 20.6 86 1.7 W 9 13 5 7 1015.9 - 0.2
15/08:00pm 23.4 26.9 20.3 83 2.0 NNW 2 7 1 4 1015.0 - 0.2
15/07:30pm 23.6 27.4 20.1 81 2.3 CALM 0 0 0 0 1014.6 - 0.2
15/07:00pm 23.9 26.9 20.0 79 2.6 NNW 4 9 2 5 1014.2 - 0.2
15/06:30pm 24.3 27.6 20.0 77 2.8 N 2 7 1 4 1013.8 - 0.2
15/06:00pm 24.7 27.0 19.8 74 3.2 NNE 7 13 4 7 1013.8 1011.1 0.2
15/05:30pm 25.4 27.2 19.5 70 3.9 NNE 9 15 5 8 1013.4 - 0.2
15/05:00pm 26.3 27.6 19.2 65 4.7 NNE 11 17 6 9 1012.8 - 0.2
15/04:30pm 27.1 28.8 19.4 62 5.1 NNE 9 15 5 8 1012.6 - 0.2
15/04:00pm 28.0 28.9 18.4 56 6.2 N 11 17 6 9 1012.2 - 0.2
15/03:30pm 28.3 29.3 17.8 53 6.8 NNW 9 13 5 7 1012.2 - 0.2
15/03:00pm 28.0 30.2 18.4 56 6.3 NNE 4 7 2 4 1012.5 1009.8 0.2
15/02:30pm 27.8 29.5 18.5 57 6.1 SE 7 11 4 6 1012.7 - 0.2
15/02:00pm 28.0 30.0 18.7 57 6.1 SE 6 11 3 6 1013.2 - 0.2
15/01:30pm 27.5 28.7 19.0 59 5.6 S 11 15 6 8 1013.4 - 0.2
15/01:00pm 27.7 28.5 18.1 56 6.2 ENE 11 17 6 9 1013.7 - 0.2
15/12:30pm 27.6 28.6 17.7 54 6.4 E 9 11 5 6 1014.2 - 0.2
15/12:00pm 27.7 27.3 17.2 52 6.7 ENE 15 20 8 11 1014.6 1011.9 0.2
15/11:30am 28.1 28.7 17.6 53 6.8 NE 11 22 6 12 1015.0 - 0.2
15/11:00am 27.3 27.8 17.5 55 6.3 NNE 11 19 6 10 1015.5 - 0.2
15/10:30am 27.0 28.4 18.6 60 5.5 ESE 9 15 5 8 1015.7 - 0.2
15/10:00am 25.7 26.6 18.4 64 4.7 E 11 17 6 9 1015.5 - 0.2
15/09:30am 25.6 26.6 19.5 69 4.0 SE 13 19 7 10 1015.5 - 0.0
15/09:00am 24.4 25.4 19.5 74 3.2 SSE 13 19 7 10 1015.7 1013.0 2.2
15/08:30am 24.1 24.7 20.2 79 2.6 SSE 17 22 9 12 1015.2 - 2.2
15/08:00am 23.1 23.9 19.1 78 2.6 SE 13 20 7 11 1014.9 - 2.2
15/07:30am 22.5 23.8 19.3 82 2.1 SE 11 17 6 9 1014.5 - 2.2
15/07:00am 21.8 24.0 19.7 88 1.4 SSE 7 11 4 6 1014.3 - 2.2
15/06:30am 21.5 23.3 19.6 89 1.2 SE 9 13 5 7 1014.0 - 2.2
15/06:00am 21.7 23.5 19.6 88 1.4 SE 9 13 5 7 1013.5 1010.8 2.2
15/05:30am 21.9 23.4 19.8 88 1.4 SE 11 13 6 7 1013.2 - 2.2
15/05:00am 22.0 23.3 20.1 89 1.2 SSE 13 17 7 9 1013.1 - 2.2
15/04:30am 22.2 24.9 20.7 91 1.0 SE 7 9 4 5 1013.2 - 2.2
15/04:00am 21.9 24.8 20.7 93 0.8 SE 6 7 3 4 1013.1 - 2.2
15/03:30am 22.1 26.4 21.1 94 0.7 CALM 0 0 0 0 1013.2 - 2.2
15/03:00am 22.4 26.7 21.2 93 0.8 CALM 0 0 0 0 1013.2 1010.5 2.2
15/02:30am 22.5 26.9 21.3 93 0.8 CALM 0 0 0 0 1013.1 - 2.2
15/02:00am 22.5 25.3 21.5 94 0.7 SE 9 11 5 6 1013.3 - 2.2
15/01:30am 22.4 26.1 21.4 94 0.7 NW 4 11 2 6 1013.1 - 2.2
15/01:00am 22.5 26.6 21.5 94 0.7 N 2 7 1 4 1013.1 - 2.2
15/12:30am 22.5 26.1 21.3 93 0.8 N 4 9 2 5 1013.6 - 2.2
15/12:00am 22.5 25.5 21.3 93 0.8 N 7 11 4 6 1014.1 1011.4 2.0
 
Date/Time
EST
Temp
°C
App
Temp
°C
Dew
Point
Rel
Hum
%
Delta-T
°C
Wind Press
QNH
hPa
Press
MSL
hPa
Rain
since 9 am
mm
Dir
 
Spd
km/h
Gust
km/h
Spd
kts
Gust
kts
14/11:30pm 22.7 25.7 21.3 92 0.9 SE 7 9 4 5 1014.0 - 1.6
14/11:00pm 22.7 24.9 21.2 91 1.0 ESE 11 15 6 8 1014.1 - 1.6
14/10:30pm 22.8 23.9 21.3 91 1.0 SSW 17 24 9 13 1014.5 - 0.8
14/10:00pm 23.0 26.3 21.4 91 1.1 WSW 6 9 3 5 1014.7 - 0.0
14/09:30pm 23.2 26.3 21.1 88 1.4 W 6 11 3 6 1014.5 - 0.0
14/09:00pm 23.2 26.3 21.1 88 1.4 NNE 6 13 3 7 1013.8 1011.1 0.0
14/08:30pm 23.4 26.4 21.3 88 1.4 N 7 11 4 6 1013.6 - 0.0
14/08:00pm 23.4 25.9 21.1 87 1.5 N 9 13 5 7 1013.3 - 0.0
14/07:30pm 23.5 26.6 21.4 88 1.4 N 7 11 4 6 1012.6 - 0.0
14/07:00pm 23.9 26.6 21.4 86 1.7 N 9 13 5 7 1012.2 - 0.0
14/06:30pm 24.2 27.4 21.3 84 1.9 NE 6 9 3 5 1011.7 - 0.0
14/06:00pm 24.9 27.2 21.4 81 2.4 NNE 11 15 6 8 1011.4 1008.7 0.0
14/05:30pm 26.2 29.0 21.6 76 3.1 NNE 9 13 5 7 1010.9 - 0.0
14/05:00pm 27.0 29.0 21.5 72 3.7 NNE 13 22 7 12 1010.3 - 0.0
14/04:30pm 27.1 28.8 21.6 72 3.7 NNE 15 28 8 15 1010.1 - 0.0
14/04:00pm 29.3 31.3 21.5 63 5.3 NNE 13 22 7 12 1009.7 - 0.0
14/03:30pm 29.5 31.4 21.4 61 5.5 N 13 20 7 11 1009.4 - 0.0
14/03:00pm 29.8 31.9 21.7 61 5.6 NNE 13 19 7 10 1009.5 1006.8 0.0
14/02:30pm 29.7 31.6 21.4 61 5.7 NNE 13 20 7 11 1009.8 - 0.0

Other Formats:

Comma delimited format used in spreadsheet applications
http://www.bom.gov.au/fwo/IDQ60801/IDQ60801.95286.axf

JavaScript Object Notation format (JSON) in row-major order
http://www.bom.gov.au/fwo/IDQ60801/IDQ60801.95286.json